sensor_id;sensor_type;location;lat;lon;timestamp;pressure;altitude;pressure_sealevel;temperature
50206;BMP280;36098;48.390;10.856;2022-10-16T00:01:21;96064.69;;;24.29
50206;BMP280;36098;48.390;10.856;2022-10-16T00:03:47;96057.25;;;24.31
50206;BMP280;36098;48.390;10.856;2022-10-16T00:06:14;96064.09;;;24.37
50206;BMP280;36098;48.390;10.856;2022-10-16T00:08:40;96068.34;;;24.33
50206;BMP280;36098;48.390;10.856;2022-10-16T00:11:09;96070.19;;;24.33
50206;BMP280;36098;48.390;10.856;2022-10-16T00:13:36;96061.25;;;24.29
50206;BMP280;36098;48.390;10.856;2022-10-16T00:16:02;96063.16;;;24.23
50206;BMP280;36098;48.390;10.856;2022-10-16T00:18:28;96065.00;;;24.23
50206;BMP280;36098;48.390;10.856;2022-10-16T00:20:54;96063.09;;;24.28
50206;BMP280;36098;48.390;10.856;2022-10-16T00:23:20;96068.88;;;24.30
50206;BMP280;36098;48.390;10.856;2022-10-16T00:25:55;96069.41;;;24.32
50206;BMP280;36098;48.390;10.856;2022-10-16T00:28:20;96069.44;;;24.27
50206;BMP280;36098;48.390;10.856;2022-10-16T00:30:46;96069.94;;;24.29
50206;BMP280;36098;48.390;10.856;2022-10-16T00:33:11;96079.50;;;24.25
50206;BMP280;36098;48.390;10.856;2022-10-16T00:35:36;96074.22;;;24.25
50206;BMP280;36098;48.390;10.856;2022-10-16T00:38:02;96068.13;;;24.30
50206;BMP280;36098;48.390;10.856;2022-10-16T00:40:27;96073.72;;;24.23
50206;BMP280;36098;48.390;10.856;2022-10-16T00:42:53;96085.84;;;24.24
50206;BMP280;36098;48.390;10.856;2022-10-16T00:45:18;96083.97;;;24.25
50206;BMP280;36098;48.390;10.856;2022-10-16T00:47:45;96086.91;;;24.23
50206;BMP280;36098;48.390;10.856;2022-10-16T00:52:55;96077.97;;;24.19
50206;BMP280;36098;48.390;10.856;2022-10-16T00:55:21;96086.91;;;24.23
50206;BMP280;36098;48.390;10.856;2022-10-16T00:57:47;96086.91;;;24.23
50206;BMP280;36098;48.390;10.856;2022-10-16T01:00:17;96086.38;;;24.21
50206;BMP280;36098;48.390;10.856;2022-10-16T01:02:43;96083.25;;;24.19
50206;BMP280;36098;48.390;10.856;2022-10-16T01:05:08;96087.72;;;24.19
50206;BMP280;36098;48.390;10.856;2022-10-16T01:08:08;96084.81;;;24.20
50206;BMP280;36098;48.390;10.856;2022-10-16T01:10:38;96075.09;;;24.16
50206;BMP280;36098;48.390;10.856;2022-10-16T01:13:11;96075.88;;;24.16
50206;BMP280;36098;48.390;10.856;2022-10-16T01:18:30;96081.16;;;24.16
50206;BMP280;36098;48.390;10.856;2022-10-16T01:21:13;96073.75;;;24.18
50206;BMP280;36098;48.390;10.856;2022-10-16T01:24:12;96069.84;;;24.11
50206;BMP280;36098;48.390;10.856;2022-10-16T01:30:10;96055.09;;;24.10
50206;BMP280;36098;48.390;10.856;2022-10-16T01:32:59;96059.00;;;24.12
50206;BMP280;36098;48.390;10.856;2022-10-16T01:38:05;96070.59;;;24.16
50206;BMP280;36098;48.390;10.856;2022-10-16T01:40:34;96074.28;;;24.15
50206;BMP280;36098;48.390;10.856;2022-10-16T01:43:05;96075.63;;;24.13
50206;BMP280;36098;48.390;10.856;2022-10-16T01:45:32;96062.94;;;24.15
50206;BMP280;36098;48.390;10.856;2022-10-16T01:48:00;96067.47;;;24.09
50206;BMP280;36098;48.390;10.856;2022-10-16T01:50:31;96064.28;;;24.12
50206;BMP280;36098;48.390;10.856;2022-10-16T01:52:58;96055.84;;;24.10
50206;BMP280;36098;48.390;10.856;2022-10-16T01:55:28;96068.03;;;24.06
50206;BMP280;36098;48.390;10.856;2022-10-16T01:57:56;96066.97;;;24.07
50206;BMP280;36098;48.390;10.856;2022-10-16T02:00:23;96072.50;;;24.11
50206;BMP280;36098;48.390;10.856;2022-10-16T02:02:52;96080.66;;;24.09
50206;BMP280;36098;48.390;10.856;2022-10-16T02:05:55;96075.63;;;24.13
50206;BMP280;36098;48.390;10.856;2022-10-16T02:08:12;96080.66;;;24.09
50206;BMP280;36098;48.390;10.856;2022-10-16T02:10:38;96088.06;;;24.07
50206;BMP280;36098;48.390;10.856;2022-10-16T02:13:12;96077.53;;;24.07
50206;BMP280;36098;48.390;10.856;2022-10-16T02:15:38;96081.78;;;24.03
50206;BMP280;36098;48.390;10.856;2022-10-16T02:18:05;96070.16;;;24.04
50206;BMP280;36098;48.390;10.856;2022-10-16T02:20:36;96081.78;;;24.03
50206;BMP280;36098;48.390;10.856;2022-10-16T02:23:03;96069.09;;;24.05
50206;BMP280;36098;48.390;10.856;2022-10-16T02:25:30;96072.00;;;24.04
50206;BMP280;36098;48.390;10.856;2022-10-16T02:30:59;96074.31;;;24.10
50206;BMP280;36098;48.390;10.856;2022-10-16T02:33:25;96072.25;;;24.07
50206;BMP280;36098;48.390;10.856;2022-10-16T02:35:53;96075.69;;;24.03
50206;BMP280;36098;48.390;10.856;2022-10-16T02:38:20;96086.53;;;24.01
50206;BMP280;36098;48.390;10.856;2022-10-16T02:40:46;96082.31;;;24.00
50206;BMP280;36098;48.390;10.856;2022-10-16T02:43:12;96091.56;;;23.98
50206;BMP280;36098;48.390;10.856;2022-10-16T02:45:37;96091.81;;;24.01
50206;BMP280;36098;48.390;10.856;2022-10-16T02:48:03;96089.44;;;24.00
50206;BMP280;36098;48.390;10.856;2022-10-16T02:50:28;96082.31;;;24.00
50206;BMP280;36098;48.390;10.856;2022-10-16T02:52:53;96098.94;;;24.01
50206;BMP280;36098;48.390;10.856;2022-10-16T02:55:18;96094.75;;;23.95
50206;BMP280;36098;48.390;10.856;2022-10-16T02:57:44;96096.06;;;23.97
50206;BMP280;36098;48.390;10.856;2022-10-16T03:00:12;96088.66;;;23.99
50206;BMP280;36098;48.390;10.856;2022-10-16T03:02:38;96096.59;;;23.99
50206;BMP280;36098;48.390;10.856;2022-10-16T03:05:04;96095.50;;;24.00
50206;BMP280;36098;48.390;10.856;2022-10-16T03:07:29;96097.13;;;23.96
50206;BMP280;36098;48.390;10.856;2022-10-16T03:09:54;96092.38;;;23.93
50206;BMP280;36098;48.390;10.856;2022-10-16T03:12:21;96100.28;;;23.93
50206;BMP280;36098;48.390;10.856;2022-10-16T03:14:46;96103.69;;;23.99
50206;BMP280;36098;48.390;10.856;2022-10-16T03:17:11;96097.63;;;23.98
50206;BMP280;36098;48.390;10.856;2022-10-16T03:19:38;96103.97;;;23.97
50206;BMP280;36098;48.390;10.856;2022-10-16T03:22:03;96098.72;;;23.92
50206;BMP280;36098;48.390;10.856;2022-10-16T03:24:29;96104.50;;;23.94
50206;BMP280;36098;48.390;10.856;2022-10-16T03:26:54;96107.69;;;23.91
50206;BMP280;36098;48.390;10.856;2022-10-16T03:29:19;96109.00;;;23.94
50206;BMP280;36098;48.390;10.856;2022-10-16T03:31:44;96108.75;;;23.90
50206;BMP280;36098;48.390;10.856;2022-10-16T03:34:10;96109.78;;;23.94
50206;BMP280;36098;48.390;10.856;2022-10-16T03:36:35;96111.34;;;23.95
50206;BMP280;36098;48.390;10.856;2022-10-16T03:39:00;96109.56;;;23.91
50206;BMP280;36098;48.390;10.856;2022-10-16T03:41:25;96105.31;;;23.95
50206;BMP280;36098;48.390;10.856;2022-10-16T03:43:51;96092.66;;;23.92
50206;BMP280;36098;48.390;10.856;2022-10-16T03:46:16;96103.25;;;23.87
50206;BMP280;36098;48.390;10.856;2022-10-16T03:48:41;96104.84;;;23.88
50206;BMP280;36098;48.390;10.856;2022-10-16T03:51:06;96093.75;;;23.86
50206;BMP280;36098;48.390;10.856;2022-10-16T03:53:32;96095.81;;;23.94
50206;BMP280;36098;48.390;10.856;2022-10-16T03:55:57;96101.34;;;23.92
50206;BMP280;36098;48.390;10.856;2022-10-16T03:58:23;96097.19;;;23.86
50206;BMP280;36098;48.390;10.856;2022-10-16T04:00:49;96098.22;;;23.90
50206;BMP280;36098;48.390;10.856;2022-10-16T04:03:14;96102.44;;;23.86
50206;BMP280;36098;48.390;10.856;2022-10-16T04:05:39;96104.03;;;23.87
50206;BMP280;36098;48.390;10.856;2022-10-16T04:08:05;96119.09;;;23.87
50206;BMP280;36098;48.390;10.856;2022-10-16T04:10:30;96105.59;;;23.88
50206;BMP280;36098;48.390;10.856;2022-10-16T04:12:56;96111.69;;;23.89
50206;BMP280;36098;48.390;10.856;2022-10-16T04:15:24;96111.44;;;23.85
50206;BMP280;36098;48.390;10.856;2022-10-16T04:17:50;96113.25;;;23.90
50206;BMP280;36098;48.390;10.856;2022-10-16T04:20:16;96119.09;;;23.87
50206;BMP280;36098;48.390;10.856;2022-10-16T04:22:41;96106.94;;;23.81
50206;BMP280;36098;48.390;10.856;2022-10-16T04:25:06;96101.91;;;23.89
50206;BMP280;36098;48.390;10.856;2022-10-16T04:27:32;96102.44;;;23.86
50206;BMP280;36098;48.390;10.856;2022-10-16T04:29:59;96098.50;;;23.89
50206;BMP280;36098;48.390;10.856;2022-10-16T04:32:24;96106.41;;;23.89
50206;BMP280;36098;48.390;10.856;2022-10-16T04:34:50;96101.66;;;23.86
50206;BMP280;36098;48.390;10.856;2022-10-16T04:37:15;96100.88;;;23.85
50206;BMP280;36098;48.390;10.856;2022-10-16T04:39:40;96103.25;;;23.87
50206;BMP280;36098;48.390;10.856;2022-10-16T04:42:06;96104.56;;;23.84
50206;BMP280;36098;48.390;10.856;2022-10-16T04:44:31;96096.38;;;23.86
50206;BMP280;36098;48.390;10.856;2022-10-16T04:46:56;96112.75;;;23.83
50206;BMP280;36098;48.390;10.856;2022-10-16T04:49:21;96106.69;;;23.82
50206;BMP280;36098;48.390;10.856;2022-10-16T04:51:47;96113.50;;;23.88
50206;BMP280;36098;48.390;10.856;2022-10-16T04:54:12;96119.34;;;23.85
50206;BMP280;36098;48.390;10.856;2022-10-16T04:56:37;96115.13;;;23.84
50206;BMP280;36098;48.390;10.856;2022-10-16T04:59:11;96108.81;;;23.80
50206;BMP280;36098;48.390;10.856;2022-10-16T05:01:36;96117.75;;;23.84
50206;BMP280;36098;48.390;10.856;2022-10-16T05:04:01;96103.78;;;23.84
50206;BMP280;36098;48.390;10.856;2022-10-16T05:06:27;96114.63;;;23.77
50206;BMP280;36098;48.390;10.856;2022-10-16T05:08:52;96106.41;;;23.79
50206;BMP280;36098;48.390;10.856;2022-10-16T05:11:17;96109.34;;;23.77
50206;BMP280;36098;48.390;10.856;2022-10-16T05:13:43;96106.16;;;23.75
50206;BMP280;36098;48.390;10.856;2022-10-16T05:16:08;96117.78;;;23.79
50206;BMP280;36098;48.390;10.856;2022-10-16T05:18:33;96110.41;;;23.76
50206;BMP280;36098;48.390;10.856;2022-10-16T05:20:59;96117.25;;;23.77
50206;BMP280;36098;48.390;10.856;2022-10-16T05:23:24;96118.84;;;23.78
50206;BMP280;36098;48.390;10.856;2022-10-16T05:25:56;96121.72;;;23.77
50206;BMP280;36098;48.390;10.856;2022-10-16T05:28:24;96118.03;;;23.78
50206;BMP280;36098;48.390;10.856;2022-10-16T05:30:49;96114.63;;;23.77
50206;BMP280;36098;48.390;10.856;2022-10-16T05:33:15;96119.91;;;23.77
50206;BMP280;36098;48.390;10.856;2022-10-16T05:35:40;96128.34;;;23.69
50206;BMP280;36098;48.390;10.856;2022-10-16T05:38:06;96123.59;;;23.71
50206;BMP280;36098;48.390;10.856;2022-10-16T05:40:31;96129.13;;;23.75
50206;BMP280;36098;48.390;10.856;2022-10-16T05:42:56;96135.47;;;23.74
50206;BMP280;36098;48.390;10.856;2022-10-16T05:45:22;96142.06;;;23.71
50206;BMP280;36098;48.390;10.856;2022-10-16T05:47:47;96146.56;;;23.71
50206;BMP280;36098;48.390;10.856;2022-10-16T05:50:12;96157.31;;;23.74
50206;BMP280;36098;48.390;10.856;2022-10-16T05:52:38;96154.97;;;23.73
50206;BMP280;36098;48.390;10.856;2022-10-16T05:55:03;96157.88;;;23.71
50206;BMP280;36098;48.390;10.856;2022-10-16T05:57:29;96151.81;;;23.71
50206;BMP280;36098;48.390;10.856;2022-10-16T05:59:55;96153.41;;;23.72
50206;BMP280;36098;48.390;10.856;2022-10-16T06:02:21;96158.94;;;23.70
50206;BMP280;36098;48.390;10.856;2022-10-16T06:04:46;96160.25;;;23.73
50206;BMP280;36098;48.390;10.856;2022-10-16T06:07:11;96156.28;;;23.70
50206;BMP280;36098;48.390;10.856;2022-10-16T06:09:37;96155.25;;;23.66
50206;BMP280;36098;48.390;10.856;2022-10-16T06:12:02;96164.78;;;23.62
50206;BMP280;36098;48.390;10.856;2022-10-16T06:14:27;96160.53;;;23.66
50206;BMP280;36098;48.390;10.856;2022-10-16T06:16:53;96165.84;;;23.61
50206;BMP280;36098;48.390;10.856;2022-10-16T06:19:18;96171.59;;;23.68
50206;BMP280;36098;48.390;10.856;2022-10-16T06:21:43;96162.59;;;23.74
50206;BMP280;36098;48.390;10.856;2022-10-16T06:24:09;96168.94;;;23.73
50206;BMP280;36098;48.390;10.856;2022-10-16T06:26:34;96169.44;;;23.75
50206;BMP280;36098;48.390;10.856;2022-10-16T06:29:00;96173.78;;;23.51
50206;BMP280;36098;48.390;10.856;2022-10-16T06:31:26;96174.22;;;23.68
50206;BMP280;36098;48.390;10.856;2022-10-16T06:33:54;96182.63;;;23.75
50206;BMP280;36098;48.390;10.856;2022-10-16T06:36:20;96188.44;;;23.72
50206;BMP280;36098;48.390;10.856;2022-10-16T06:38:46;96180.59;;;23.62
50206;BMP280;36098;48.390;10.856;2022-10-16T06:41:14;96192.75;;;23.53
50206;BMP280;36098;48.390;10.856;2022-10-16T06:43:39;96197.25;;;23.53
50206;BMP280;36098;48.390;10.856;2022-10-16T06:46:06;96186.38;;;23.64
50206;BMP280;36098;48.390;10.856;2022-10-16T06:48:35;96189.56;;;23.61
50206;BMP280;36098;48.390;10.856;2022-10-16T06:51:12;96196.44;;;23.57
50206;BMP280;36098;48.390;10.856;2022-10-16T06:53:49;96195.66;;;23.52
50206;BMP280;36098;48.390;10.856;2022-10-16T06:58:45;96213.78;;;23.68
50206;BMP280;36098;48.390;10.856;2022-10-16T07:01:11;96203.22;;;23.83
50206;BMP280;36098;48.390;10.856;2022-10-16T07:03:38;96216.97;;;23.55
50206;BMP280;36098;48.390;10.856;2022-10-16T07:06:05;96223.03;;;23.61
50206;BMP280;36098;48.390;10.856;2022-10-16T07:08:34;96228.78;;;23.83
50206;BMP280;36098;48.390;10.856;2022-10-16T07:11:01;96232.94;;;23.99
50206;BMP280;36098;48.390;10.856;2022-10-16T07:13:28;96238.72;;;24.06
50206;BMP280;36098;48.390;10.856;2022-10-16T07:15:53;96229.75;;;24.02
50206;BMP280;36098;48.390;10.856;2022-10-16T07:18:19;96232.38;;;24.02
50206;BMP280;36098;48.390;10.856;2022-10-16T07:20:44;96239.81;;;23.95
50206;BMP280;36098;48.390;10.856;2022-10-16T07:23:09;96241.13;;;23.97
50206;BMP280;36098;48.390;10.856;2022-10-16T07:25:35;96228.81;;;23.68
50206;BMP280;36098;48.390;10.856;2022-10-16T07:28:00;96241.19;;;23.82
50206;BMP280;36098;48.390;10.856;2022-10-16T07:30:25;96234.06;;;23.88
50206;BMP280;36098;48.390;10.856;2022-10-16T07:32:50;96243.78;;;23.92
50206;BMP280;36098;48.390;10.856;2022-10-16T07:35:16;96248.00;;;23.88
50206;BMP280;36098;48.390;10.856;2022-10-16T07:37:44;96263.59;;;23.75
50206;BMP280;36098;48.390;10.856;2022-10-16T07:40:10;96262.78;;;23.74
50206;BMP280;36098;48.390;10.856;2022-10-16T07:42:36;96253.03;;;23.75
50206;BMP280;36098;48.390;10.856;2022-10-16T07:45:01;96263.38;;;23.61
50206;BMP280;36098;48.390;10.856;2022-10-16T07:47:26;96266.00;;;23.66
50206;BMP280;36098;48.390;10.856;2022-10-16T07:49:52;96270.22;;;23.62
50206;BMP280;36098;48.390;10.856;2022-10-16T07:52:17;96270.50;;;23.56
50206;BMP280;36098;48.390;10.856;2022-10-16T07:54:42;96275.50;;;23.62
50206;BMP280;36098;48.390;10.856;2022-10-16T07:57:07;96275.50;;;23.62
50206;BMP280;36098;48.390;10.856;2022-10-16T07:59:33;96276.03;;;23.59
50206;BMP280;36098;48.390;10.856;2022-10-16T08:01:58;96274.97;;;23.65
50206;BMP280;36098;48.390;10.856;2022-10-16T08:04:24;96287.63;;;23.63
50206;BMP280;36098;48.390;10.856;2022-10-16T08:06:49;96295.53;;;23.63
50206;BMP280;36098;48.390;10.856;2022-10-16T08:09:14;96289.22;;;23.54
50206;BMP280;36098;48.390;10.856;2022-10-16T08:11:40;96287.09;;;23.61
50206;BMP280;36098;48.390;10.856;2022-10-16T08:14:05;96291.84;;;23.59
50206;BMP280;36098;48.390;10.856;2022-10-16T08:16:30;96286.31;;;23.46
50206;BMP280;36098;48.390;10.856;2022-10-16T08:18:56;96283.69;;;23.46
50206;BMP280;36098;48.390;10.856;2022-10-16T08:21:23;96281.84;;;23.51
50206;BMP280;36098;48.390;10.856;2022-10-16T08:23:49;96291.84;;;23.54
50206;BMP280;36098;48.390;10.856;2022-10-16T08:26:15;96283.44;;;23.47
50206;BMP280;36098;48.390;10.856;2022-10-16T08:28:40;96286.06;;;23.52
50206;BMP280;36098;48.390;10.856;2022-10-16T08:31:15;96284.47;;;23.61
50206;BMP280;36098;48.390;10.856;2022-10-16T08:33:42;96285.00;;;23.58
50206;BMP280;36098;48.390;10.856;2022-10-16T08:36:09;96291.31;;;23.52
50206;BMP280;36098;48.390;10.856;2022-10-16T08:38:35;96308.72;;;23.53
50206;BMP280;36098;48.390;10.856;2022-10-16T08:44:03;96296.59;;;23.52
50206;BMP280;36098;48.390;10.856;2022-10-16T08:46:44;96299.75;;;23.54
50206;BMP280;36098;48.390;10.856;2022-10-16T08:49:12;96307.91;;;23.63
50206;BMP280;36098;48.390;10.856;2022-10-16T08:51:39;96306.06;;;23.68
50206;BMP280;36098;48.390;10.856;2022-10-16T08:56:42;96313.44;;;23.86
50206;BMP280;36098;48.390;10.856;2022-10-16T08:59:10;96321.06;;;23.78
50206;BMP280;36098;48.390;10.856;2022-10-16T09:01:40;96319.22;;;23.78
50206;BMP280;36098;48.390;10.856;2022-10-16T09:09:34;96324.50;;;23.78
50206;BMP280;36098;48.390;10.856;2022-10-16T09:12:20;96321.63;;;23.70
50206;BMP280;36098;48.390;10.856;2022-10-16T09:22:47;96332.41;;;23.78
50206;BMP280;36098;48.390;10.856;2022-10-16T09:25:18;96339.53;;;23.78
50206;BMP280;36098;48.390;10.856;2022-10-16T09:27:47;96339.81;;;23.76
50206;BMP280;36098;48.390;10.856;2022-10-16T09:30:15;96336.63;;;23.74
50206;BMP280;36098;48.390;10.856;2022-10-16T09:32:42;96349.31;;;23.67
50206;BMP280;36098;48.390;10.856;2022-10-16T09:35:15;96341.13;;;23.59
50206;BMP280;36098;48.390;10.856;2022-10-16T09:37:43;96337.97;;;23.57
50206;BMP280;36098;48.390;10.856;2022-10-16T09:42:56;96348.53;;;23.57
50206;BMP280;36098;48.390;10.856;2022-10-16T09:45:23;96359.59;;;23.59
50206;BMP280;36098;48.390;10.856;2022-10-16T09:47:49;96352.47;;;23.54
50206;BMP280;36098;48.390;10.856;2022-10-16T09:50:26;96351.41;;;23.55
50206;BMP280;36098;48.390;10.856;2022-10-16T09:53:03;96347.19;;;23.64
50206;BMP280;36098;48.390;10.856;2022-10-16T09:55:29;96344.03;;;23.82
50206;BMP280;36098;48.390;10.856;2022-10-16T09:57:54;96351.16;;;23.87
50206;BMP280;36098;48.390;10.856;2022-10-16T10:00:22;96365.91;;;23.93
50206;BMP280;36098;48.390;10.856;2022-10-16T10:02:48;96358.53;;;23.75
50206;BMP280;36098;48.390;10.856;2022-10-16T10:05:19;96359.31;;;23.55
50206;BMP280;36098;48.390;10.856;2022-10-16T10:07:46;96360.41;;;23.44
50206;BMP280;36098;48.390;10.856;2022-10-16T10:10:29;96362.25;;;23.54
50206;BMP280;36098;48.390;10.856;2022-10-16T10:12:55;96360.41;;;23.59
50206;BMP280;36098;48.390;10.856;2022-10-16T10:15:21;96362.50;;;23.62
50206;BMP280;36098;48.390;10.856;2022-10-16T10:17:51;96359.31;;;23.55
50206;BMP280;36098;48.390;10.856;2022-10-16T10:20:31;96356.69;;;23.60
50206;BMP280;36098;48.390;10.856;2022-10-16T10:23:00;96352.47;;;23.69
50206;BMP280;36098;48.390;10.856;2022-10-16T10:25:34;96359.59;;;23.69
50206;BMP280;36098;48.390;10.856;2022-10-16T10:28:32;96351.41;;;23.65
50206;BMP280;36098;48.390;10.856;2022-10-16T10:31:18;96362.47;;;23.67
50206;BMP280;36098;48.390;10.856;2022-10-16T10:33:54;96364.03;;;23.73
50206;BMP280;36098;48.390;10.856;2022-10-16T10:36:39;96360.09;;;23.76
50206;BMP280;36098;48.390;10.856;2022-10-16T10:39:30;96374.59;;;23.93
50206;BMP280;36098;48.390;10.856;2022-10-16T10:42:27;96373.53;;;23.99
50206;BMP280;36098;48.390;10.856;2022-10-16T10:48:29;96379.00;;;24.18
50206;BMP280;36098;48.390;10.856;2022-10-16T10:51:12;96377.19;;;24.18
50206;BMP280;36098;48.390;10.856;2022-10-16T10:54:36;96367.13;;;24.15
50206;BMP280;36098;48.390;10.856;2022-10-16T11:02:00;96358.69;;;24.23
50206;BMP280;36098;48.390;10.856;2022-10-16T11:04:36;96346.50;;;24.37
50206;BMP280;36098;48.390;10.856;2022-10-16T11:07:06;96349.91;;;24.38
50206;BMP280;36098;48.390;10.856;2022-10-16T11:09:38;96346.47;;;24.42
50206;BMP280;36098;48.390;10.856;2022-10-16T11:12:16;96352.78;;;24.46
50206;BMP280;36098;48.390;10.856;2022-10-16T11:15:03;96350.66;;;24.48
50206;BMP280;36098;48.390;10.856;2022-10-16T11:17:42;96359.63;;;24.52
50206;BMP280;36098;48.390;10.856;2022-10-16T11:20:28;96345.63;;;24.57
50206;BMP280;36098;48.390;10.856;2022-10-16T11:23:00;96338.50;;;24.52
50206;BMP280;36098;48.390;10.856;2022-10-16T11:25:28;96343.78;;;24.57
50206;BMP280;36098;48.390;10.856;2022-10-16T11:30:28;96344.19;;;24.74
50206;BMP280;36098;48.390;10.856;2022-10-16T11:36:08;96352.13;;;24.74
50206;BMP280;36098;48.390;10.856;2022-10-16T11:38:46;96348.88;;;24.87
50206;BMP280;36098;48.390;10.856;2022-10-16T11:41:26;96349.44;;;24.84
50206;BMP280;36098;48.390;10.856;2022-10-16T11:44:09;96348.97;;;24.77
50206;BMP280;36098;48.390;10.856;2022-10-16T11:46:40;96346.22;;;24.87
50206;BMP280;36098;48.390;10.856;2022-10-16T11:49:15;96346.03;;;24.79
50206;BMP280;36098;48.390;10.856;2022-10-16T11:57:00;96330.75;;;25.14
50206;BMP280;36098;48.390;10.856;2022-10-16T11:59:36;96335.06;;;25.00
50206;BMP280;36098;48.390;10.856;2022-10-16T12:07:07;96339.25;;;25.06
50206;BMP280;36098;48.390;10.856;2022-10-16T12:09:37;96335.84;;;25.01
50206;BMP280;36098;48.390;10.856;2022-10-16T12:12:03;96319.44;;;25.04
50206;BMP280;36098;48.390;10.856;2022-10-16T12:17:04;96327.78;;;25.25
50206;BMP280;36098;48.390;10.856;2022-10-16T12:19:57;96320.94;;;25.19
50206;BMP280;36098;48.390;10.856;2022-10-16T12:22:23;96327.78;;;25.25
50206;BMP280;36098;48.390;10.856;2022-10-16T12:24:51;96313.69;;;25.30
50206;BMP280;36098;48.390;10.856;2022-10-16T12:27:28;96323.88;;;25.46
50206;BMP280;36098;48.390;10.856;2022-10-16T12:29:56;96320.75;;;25.44
50206;BMP280;36098;48.390;10.856;2022-10-16T12:32:34;96326.28;;;25.43
50206;BMP280;36098;48.390;10.856;2022-10-16T12:35:02;96325.16;;;25.54
50206;BMP280;36098;48.390;10.856;2022-10-16T12:37:34;96325.72;;;25.46
50206;BMP280;36098;48.390;10.856;2022-10-16T12:40:11;96337.31;;;25.50
50206;BMP280;36098;48.390;10.856;2022-10-16T12:42:37;96322.13;;;25.65
50206;BMP280;36098;48.390;10.856;2022-10-16T12:45:29;96326.84;;;25.68
50206;BMP280;36098;48.390;10.856;2022-10-16T12:47:57;96335.09;;;25.62
50206;BMP280;36098;48.390;10.856;2022-10-16T12:50:28;96329.19;;;25.70
50206;BMP280;36098;48.390;10.856;2022-10-16T12:52:55;96342.38;;;25.75
50206;BMP280;36098;48.390;10.856;2022-10-16T12:55:21;96330.50;;;25.72
50206;BMP280;36098;48.390;10.856;2022-10-16T13:00:45;96330.66;;;25.86
50206;BMP280;36098;48.390;10.856;2022-10-16T13:09:08;96333.72;;;25.69
50206;BMP280;36098;48.390;10.856;2022-10-16T13:12:07;96336.63;;;25.68
50206;BMP280;36098;48.390;10.856;2022-10-16T13:23:19;96330.75;;;25.71
50206;BMP280;36098;48.390;10.856;2022-10-16T13:28:48;96346.19;;;25.64
50206;BMP280;36098;48.390;10.856;2022-10-16T13:31:18;96347.19;;;25.68
50206;BMP280;36098;48.390;10.856;2022-10-16T13:33:50;96342.22;;;25.66
50206;BMP280;36098;48.390;10.856;2022-10-16T13:36:45;96349.56;;;25.69
50206;BMP280;36098;48.390;10.856;2022-10-16T13:41:58;96341.91;;;25.68
50206;BMP280;36098;48.390;10.856;2022-10-16T13:44:23;96341.13;;;25.67
50206;BMP280;36098;48.390;10.856;2022-10-16T13:46:59;96348.00;;;25.68
50206;BMP280;36098;48.390;10.856;2022-10-16T13:49:25;96341.03;;;25.77
50206;BMP280;36098;48.390;10.856;2022-10-16T13:51:58;96349.56;;;25.69
50206;BMP280;36098;48.390;10.856;2022-10-16T13:54:25;96345.72;;;25.57
50206;BMP280;36098;48.390;10.856;2022-10-16T13:56:51;96350.84;;;25.72
50206;BMP280;36098;48.390;10.856;2022-10-16T13:59:32;96335.78;;;25.72
50206;BMP280;36098;48.390;10.856;2022-10-16T14:01:58;96352.50;;;25.68
50206;BMP280;36098;48.390;10.856;2022-10-16T14:04:32;96353.06;;;25.65
50206;BMP280;36098;48.390;10.856;2022-10-16T14:06:57;96351.03;;;25.57
50206;BMP280;36098;48.390;10.856;2022-10-16T14:09:26;96351.97;;;25.66
50206;BMP280;36098;48.390;10.856;2022-10-16T14:12:03;96356.19;;;25.67
50206;BMP280;36098;48.390;10.856;2022-10-16T14:14:50;96356.00;;;25.58
50206;BMP280;36098;48.390;10.856;2022-10-16T14:17:20;96355.28;;;25.53
50206;BMP280;36098;48.390;10.856;2022-10-16T14:19:48;96367.97;;;25.56
50206;BMP280;36098;48.390;10.856;2022-10-16T14:24:48;96367.53;;;25.44
50206;BMP280;36098;48.390;10.856;2022-10-16T14:32:32;96362.41;;;25.24
50206;BMP280;36098;48.390;10.856;2022-10-16T14:34:57;96360.56;;;25.24
50206;BMP280;36098;48.390;10.856;2022-10-16T14:37:25;96360.31;;;25.16
50206;BMP280;36098;48.390;10.856;2022-10-16T14:39:51;96352.97;;;25.08
50206;BMP280;36098;48.390;10.856;2022-10-16T14:42:18;96358.28;;;25.03
50206;BMP280;36098;48.390;10.856;2022-10-16T14:44:44;96357.78;;;25.01
50206;BMP280;36098;48.390;10.856;2022-10-16T14:47:13;96362.53;;;24.99
50206;BMP280;36098;48.390;10.856;2022-10-16T14:49:41;96367.88;;;24.94
50206;BMP280;36098;48.390;10.856;2022-10-16T14:52:16;96365.22;;;24.94
50206;BMP280;36098;48.390;10.856;2022-10-16T14:54:41;96369.44;;;24.95
50206;BMP280;36098;48.390;10.856;2022-10-16T14:57:17;96372.34;;;24.94
50206;BMP280;36098;48.390;10.856;2022-10-16T14:59:42;96370.50;;;24.94
50206;BMP280;36098;48.390;10.856;2022-10-16T15:02:38;96370.47;;;24.99
50206;BMP280;36098;48.390;10.856;2022-10-16T15:05:23;96377.13;;;24.92
50206;BMP280;36098;48.390;10.856;2022-10-16T15:07:50;96372.66;;;24.87
50206;BMP280;36098;48.390;10.856;2022-10-16T15:10:16;96372.63;;;24.92
50206;BMP280;36098;48.390;10.856;2022-10-16T15:12:42;96371.59;;;24.88
50206;BMP280;36098;48.390;10.856;2022-10-16T15:17:56;96366.81;;;24.90
50206;BMP280;36098;48.390;10.856;2022-10-16T15:20:26;96365.03;;;24.86
50206;BMP280;36098;48.390;10.856;2022-10-16T15:22:52;96371.38;;;24.85
50206;BMP280;36098;48.390;10.856;2022-10-16T15:28:08;96375.84;;;24.84
50206;BMP280;36098;48.390;10.856;2022-10-16T15:30:34;96374.22;;;24.88
50206;BMP280;36098;48.390;10.856;2022-10-16T15:33:00;96382.66;;;24.90
50206;BMP280;36098;48.390;10.856;2022-10-16T15:35:26;96377.91;;;24.92
50206;BMP280;36098;48.390;10.856;2022-10-16T15:37:51;96371.88;;;24.87
50206;BMP280;36098;48.390;10.856;2022-10-16T15:40:18;96377.69;;;24.84
50206;BMP280;36098;48.390;10.856;2022-10-16T15:42:44;96383.22;;;24.87
50206;BMP280;36098;48.390;10.856;2022-10-16T15:45:12;96377.94;;;24.87
50206;BMP280;36098;48.390;10.856;2022-10-16T15:47:37;96388.97;;;24.99
50206;BMP280;36098;48.390;10.856;2022-10-16T15:50:04;96387.31;;;25.08